Flight Track Log - Related Links

Times and Time Zones

All times are in EDT time to prevent confusion due to time zone crossing. See the SWA3924 flight status page for this flight to view local times or setup timezone preferences in your user account.

Time Position Orientation Groundspeed Altitude Reporting Facility
EDT Latitude Longitude Course Direction KTS MPH feet Rate Location/Type
Wed 10:45:34 PM 37.7500 -122.2833 301° West 217 250 2,700  Level Northern Cal TRACON
Wed 10:46:28 PM 37.7775 -122.3411 301° West 245 282 4,300 2,922 Climbing Oakland Center
Wed 10:47:29 PM 37.8522 -122.3486 355° North 268 308 8,300 3,295 Climbing Oakland Center
Wed 10:48:30 PM 37.9331 -122.3553 356° North 289 333 11,000 2,902 Climbing Oakland Center
Wed 10:49:31 PM 38.0308 -122.3617 357° North 353 406 14,200 3,590 Climbing Oakland Center
Wed 10:50:32 PM 38.1547 -122.3706 357° North 375 432 18,300 3,590 Climbing Oakland Center
Wed 10:51:33 PM 38.2619 -122.3775 357° North 386 444 21,500 2,852 Climbing Oakland Center
Wed 10:52:34 PM 38.3731 -122.3836 358° North 398 458 24,100 1,721 Climbing Oakland Center
Wed 10:53:35 PM 38.4883 -122.3906 357° North 412 474 25,000 1,171 Climbing Oakland Center
Wed 10:54:37 PM 38.6044 -122.3978 357° North 417 480 26,500 1,756 Climbing Oakland Center
Wed 10:55:38 PM 38.7217 -122.4053 357° North 424 488 28,600 1,967 Climbing Oakland Center
Wed 10:56:39 PM 38.8431 -122.4136 357° North 430 495 30,500 2,213 Climbing Oakland Center
Wed 10:57:40 PM 38.9656 -122.4222 357° North 433 498 33,100 2,508 Climbing Oakland Center
Wed 10:58:41 PM 39.0853 -122.4281 358° North 432 497 35,600 2,115 Climbing Oakland Center
Wed 10:59:42 PM 39.2003 -122.4344 358° North 418 481 37,400 1,721 Climbing Oakland Center
Wed 11:00:43 PM 39.3372 -122.4433 357° North 410 472 39,100 1,279 Climbing Oakland Center
Wed 11:01:44 PM 39.4497 -122.4500 357° North 406 467 40,000 443 Climbing Oakland Center
Wed 11:02:45 PM 39.5594 -122.4564 357° North 404 465 40,000  Level Oakland Center
Wed 11:03:47 PM 39.6717 -122.4631 357° North 404 465 40,000  Level Oakland Center
Wed 11:04:48 PM 39.7836 -122.4700 357° North 402 463 40,000  Level Oakland Center
Wed 11:05:49 PM 39.8947 -122.4778 357° North 400 460 40,000  Level Oakland Center
Wed 11:06:50 PM 40.0106 -122.4842 358° North 412 474 40,000  Level Oakland Center
Wed 11:07:51 PM 40.1261 -122.4944 356° North 410 472 40,000  Level Oakland Center
Wed 11:08:52 PM 40.2447 -122.4997 358° North 412 474 40,000  Level Oakland Center
Wed 11:09:53 PM 40.3589 -122.5047 358° North 405 466 40,000  Level Oakland Center
Wed 11:10:55 PM 40.4725 -122.5117 357° North 407 468 40,000  Level Oakland Center
Wed 11:11:56 PM 40.5844 -122.5189 357° North 402 463 40,000  Level Oakland Center
Wed 11:12:57 PM 40.6972 -122.5256 357° North 404 465 40,000  Level Oakland Center
Wed 11:13:58 PM 40.8072 -122.5308 358° North 397 457 40,000  Level Oakland Center
Wed 11:14:59 PM 40.9406 -122.5397 357° North 398 458 40,000  Level Oakland Center
Wed 11:16:00 PM 41.0511 -122.5458 358° North 398 458 40,000  Level Oakland Center
Wed 11:17:01 PM 41.1631 -122.5539 357° North 404 465 40,000  Level Oakland Center
Wed 11:18:02 PM 41.2719 -122.5622 357° North 396 456 40,000  Level Oakland Center
Wed 11:19:03 PM 41.3781 -122.5669 358° North 393 452 40,000  Level Oakland Center
Wed 11:19:48 PM 41.4675 -122.5739 357° North 398 458 40,000  Level Seattle Center
Wed 11:20:49 PM 41.5783 -122.5814 357° North 398 458 40,000  Level Seattle Center
Wed 11:21:50 PM 41.6883 -122.5886 357° North 396 456 40,000  Level Seattle Center
Wed 11:22:50 PM 41.7997 -122.5939 358° North 397 457 40,000  Level Seattle Center
Wed 11:23:51 PM 41.9108 -122.6019 357° North 399 459 40,000  Level Seattle Center
Wed 11:24:52 PM 42.0225 -122.6092 357° North 399 459 40,000  Level Seattle Center
Wed 11:25:53 PM 42.1375 -122.6164 357° North 404 465 40,000  Level Seattle Center
Wed 11:26:53 PM 42.2492 -122.6228 358° North 399 459 40,000  Level Seattle Center
Wed 11:27:54 PM 42.3600 -122.6328 356° North 396 456 40,000  Level Seattle Center
Wed 11:28:55 PM 42.4725 -122.6411 357° North 401 461 40,000  Level Seattle Center
Wed 11:29:56 PM 42.5853 -122.6481 357° North 403 464 40,000  Level Seattle Center
Wed 11:30:56 PM 42.6969 -122.6561 357° North 401 461 40,000  Level Seattle Center
Wed 11:31:57 PM 42.8047 -122.6631 357° North 401 461 40,000  Level Seattle Center
Wed 11:32:58 PM 42.9167 -122.6703 357° North 402 463 40,000  Level Seattle Center
Wed 11:33:58 PM 43.0283 -122.6778 357° North 400 460 40,000  Level Seattle Center
Wed 11:34:59 PM 43.1394 -122.6850 357° North 400 460 40,000  Level Seattle Center
Wed 11:36:00 PM 43.2500 -122.6889 359° North 398 458 40,000  Level Seattle Center
Wed 11:37:01 PM 43.3608 -122.6869 North 397 457 40,000  Level Seattle Center
Wed 11:38:01 PM 43.4933 -122.6831 North 397 457 40,000  Level Seattle Center
Wed 11:39:02 PM 43.6031 -122.6822 360° North 394 453 40,000  Level Seattle Center
Wed 11:40:03 PM 43.7142 -122.6808 North 398 458 40,000  Level Seattle Center
Wed 11:41:03 PM 43.8247 -122.6803 360° North 399 459 40,000 -942 Level Seattle Center
Wed 11:42:04 PM 43.9339 -122.6803 360° North 396 456 38,100 -2,361 Descending Seattle Center
Wed 11:43:05 PM 44.0425 -122.6789 North 394 453 35,200 -3,148 Descending Seattle Center
Wed 11:44:06 PM 44.1594 -122.6778 360° North 410 472 31,700 -3,372 Descending Seattle Center
Wed 11:45:06 PM 44.2797 -122.6758 North 429 494 28,400 -3,025 Descending Seattle Center
Wed 11:46:07 PM 44.4008 -122.6767 360° North 437 503 25,600 -2,852 Descending Seattle Center
Wed 11:47:08 PM 44.5153 -122.6750 North 424 488 22,600 -2,803 Descending Seattle Center
Wed 11:48:09 PM 44.6272 -122.6742 360° North 410 472 19,900 -2,479 Descending Seattle Center
Wed 11:49:09 PM 44.7350 -122.6742 360° North 397 457 17,600 -2,529 Descending Seattle Center
Wed 11:50:10 PM 44.8386 -122.6722 North 383 441 14,800 -3,000 Descending Seattle Center
Wed 11:51:11 PM 44.9581 -122.6719 360° North 371 427 11,500 -2,256 Descending Seattle Center
Wed 11:52:15 PM 45.0497 -122.6381 15° North 320 368 10,100 -1,140 Descending Seattle Center
Wed 11:53:12 PM 45.1222 -122.5997 20° North 317 365 9,200 -1,339 Descending Seattle Center
Wed 11:54:16 PM 45.1997 -122.5556 22° Northeast 275 316 7,400 -1,525 Descending Seattle Center
Wed 11:55:14 PM 45.2611 -122.5208 22° Northeast 272 313 6,100 -1,373 Descending Seattle Center
Wed 11:56:14 PM 45.3319 -122.4836 20° North 273 314 4,700 -1,041 Descending Seattle Center
Wed 11:57:15 PM 45.3961 -122.4483 21° North 256 295 4,000 -836 Descending Seattle Center
Wed 11:58:16 PM 45.4550 -122.4150 22° Northeast 235 270 3,000 -787 Descending Seattle Center
Wed 11:59:17 PM 45.5092 -122.3861 20° North 217 250 2,400 -590 Descending Seattle Center
Thu 12:00:18 AM 45.5389 -122.4519 303° West 208 239 1,800 -694 Descending Seattle Center
Thu 12:01:18 AM 45.5608 -122.5086 299° West 185 213 1,000 -694 Descending Seattle Center
Thu 12:02:19 AM 45.5825 -122.5619 300° West 167 192 400 -590 Descending Seattle Center

Login

Don't have an account? Register now (free) for customized features, flight alerts, and more!